sensor_id;sensor_type;location;lat;lon;timestamp;pressure;altitude;pressure_sealevel;temperature;humidity
75409;BME280;63979;55.644;37.734;2023-07-31T00:00:45;99410.09;;;17.32;66.06
75409;BME280;63979;55.644;37.734;2023-07-31T00:05:47;99397.06;;;17.28;65.01
75409;BME280;63979;55.644;37.734;2023-07-31T00:10:51;99392.53;;;17.28;64.13
75409;BME280;63979;55.644;37.734;2023-07-31T00:15:53;99385.97;;;17.31;63.91
75409;BME280;63979;55.644;37.734;2023-07-31T00:20:54;99400.91;;;17.43;63.99
75409;BME280;63979;55.644;37.734;2023-07-31T00:25:55;99406.28;;;17.43;63.14
75409;BME280;63979;55.644;37.734;2023-07-31T00:30:56;99410.69;;;17.44;62.90
75409;BME280;63979;55.644;37.734;2023-07-31T00:35:57;99361.97;;;17.20;63.31
75409;BME280;63979;55.644;37.734;2023-07-31T00:40:58;99402.44;;;17.45;63.57
75409;BME280;63979;55.644;37.734;2023-07-31T00:45:59;99400.69;;;17.36;63.68
75409;BME280;63979;55.644;37.734;2023-07-31T00:51:00;99397.38;;;17.25;67.75
75409;BME280;63979;55.644;37.734;2023-07-31T00:56:03;99396.81;;;17.13;64.60
75409;BME280;63979;55.644;37.734;2023-07-31T01:01:05;99393.44;;;17.11;63.91
75409;BME280;63979;55.644;37.734;2023-07-31T01:06:13;99404.47;;;17.26;63.42
75409;BME280;63979;55.644;37.734;2023-07-31T01:11:30;99389.97;;;17.27;63.58
75409;BME280;63979;55.644;37.734;2023-07-31T01:16:31;99361.16;;;17.01;63.78
75409;BME280;63979;55.644;37.734;2023-07-31T01:26:38;99396.34;;;17.18;63.98
75409;BME280;63979;55.644;37.734;2023-07-31T01:31:41;99394.47;;;17.18;63.81
75409;BME280;63979;55.644;37.734;2023-07-31T01:36:46;99401.72;;;17.18;64.16
75409;BME280;63979;55.644;37.734;2023-07-31T01:41:47;99398.34;;;17.15;64.33
75409;BME280;63979;55.644;37.734;2023-07-31T01:46:48;99400.03;;;17.17;63.98
75409;BME280;63979;55.644;37.734;2023-07-31T01:51:49;99402.41;;;17.20;64.32
75409;BME280;63979;55.644;37.734;2023-07-31T01:56:50;99388.56;;;17.14;66.58
75409;BME280;63979;55.644;37.734;2023-07-31T02:01:51;99401.00;;;17.07;67.18
75409;BME280;63979;55.644;37.734;2023-07-31T02:06:53;99386.44;;;17.00;68.00
75409;BME280;63979;55.644;37.734;2023-07-31T02:11:54;99408.91;;;17.09;69.04
75409;BME280;63979;55.644;37.734;2023-07-31T02:16:55;99355.63;;;16.85;69.81
75409;BME280;63979;55.644;37.734;2023-07-31T02:21:56;99399.50;;;17.13;70.77
75409;BME280;63979;55.644;37.734;2023-07-31T02:26:57;99409.13;;;17.15;72.00
75409;BME280;63979;55.644;37.734;2023-07-31T02:31:58;99374.66;;;17.01;71.56
75409;BME280;63979;55.644;37.734;2023-07-31T02:36:59;99397.88;;;17.20;71.54
75409;BME280;63979;55.644;37.734;2023-07-31T02:42:00;99391.47;;;17.21;71.27
75409;BME280;63979;55.644;37.734;2023-07-31T02:47:01;99406.25;;;17.35;70.63
75409;BME280;63979;55.644;37.734;2023-07-31T02:52:04;99413.06;;;17.47;69.93
75409;BME280;63979;55.644;37.734;2023-07-31T02:57:05;99396.06;;;17.55;69.63
75409;BME280;63979;55.644;37.734;2023-07-31T03:02:06;99406.28;;;17.69;68.53
75409;BME280;63979;55.644;37.734;2023-07-31T03:07:07;99413.81;;;17.83;67.78
75409;BME280;63979;55.644;37.734;2023-07-31T03:12:08;99419.09;;;18.01;66.26
75409;BME280;63979;55.644;37.734;2023-07-31T03:17:09;99390.44;;;18.08;65.08
75409;BME280;63979;55.644;37.734;2023-07-31T03:22:10;99404.84;;;18.33;64.59
75409;BME280;63979;55.644;37.734;2023-07-31T03:27:11;99407.78;;;18.48;64.25
75409;BME280;63979;55.644;37.734;2023-07-31T03:32:12;99405.97;;;18.64;63.13
75409;BME280;63979;55.644;37.734;2023-07-31T03:37:13;99399.59;;;18.74;62.09
75409;BME280;63979;55.644;37.734;2023-07-31T03:42:14;99411.25;;;18.82;62.46
75409;BME280;63979;55.644;37.734;2023-07-31T03:47:15;99391.63;;;18.96;62.66
75409;BME280;63979;55.644;37.734;2023-07-31T03:52:16;99397.91;;;19.13;61.30
75409;BME280;63979;55.644;37.734;2023-07-31T03:57:17;99394.81;;;19.24;60.17
75409;BME280;63979;55.644;37.734;2023-07-31T04:02:19;99395.81;;;19.48;58.84
75409;BME280;63979;55.644;37.734;2023-07-31T04:07:20;99410.81;;;19.83;58.16
75409;BME280;63979;55.644;37.734;2023-07-31T04:12:21;99404.78;;;20.04;57.71
75409;BME280;63979;55.644;37.734;2023-07-31T04:17:22;99377.22;;;20.31;55.73
75409;BME280;63979;55.644;37.734;2023-07-31T04:22:23;99406.63;;;20.73;55.90
75409;BME280;63979;55.644;37.734;2023-07-31T04:27:24;99410.00;;;20.98;54.00
75409;BME280;63979;55.644;37.734;2023-07-31T04:32:25;99423.34;;;21.31;51.98
75409;BME280;63979;55.644;37.734;2023-07-31T04:37:26;99415.91;;;21.62;52.32
75409;BME280;63979;55.644;37.734;2023-07-31T04:42:27;99422.44;;;21.83;52.27
75409;BME280;63979;55.644;37.734;2023-07-31T04:47:28;99423.97;;;22.00;51.54
75409;BME280;63979;55.644;37.734;2023-07-31T04:52:29;99421.38;;;22.21;51.39
75409;BME280;63979;55.644;37.734;2023-07-31T04:57:30;99426.09;;;22.34;50.58
75409;BME280;63979;55.644;37.734;2023-07-31T05:02:31;99423.81;;;22.52;49.36
75409;BME280;63979;55.644;37.734;2023-07-31T05:07:32;99435.53;;;22.89;48.81
75409;BME280;63979;55.644;37.734;2023-07-31T05:12:33;99400.44;;;22.94;47.08
75409;BME280;63979;55.644;37.734;2023-07-31T05:17:34;99430.59;;;23.42;46.61
75409;BME280;63979;55.644;37.734;2023-07-31T05:22:35;99433.25;;;23.91;44.77
75409;BME280;63979;55.644;37.734;2023-07-31T05:27:36;99428.31;;;25.43;42.51
75409;BME280;63979;55.644;37.734;2023-07-31T05:32:37;99422.63;;;25.84;41.61
75409;BME280;63979;55.644;37.734;2023-07-31T05:37:38;99423.00;;;25.94;40.51
75409;BME280;63979;55.644;37.734;2023-07-31T05:42:39;99429.56;;;26.58;39.42
75409;BME280;63979;55.644;37.734;2023-07-31T05:47:40;99410.19;;;29.35;34.46
75409;BME280;63979;55.644;37.734;2023-07-31T05:52:41;99443.25;;;32.10;29.46
75409;BME280;63979;55.644;37.734;2023-07-31T05:57:43;99449.63;;;34.31;26.08
75409;BME280;63979;55.644;37.734;2023-07-31T06:02:47;99445.91;;;35.40;24.19
75409;BME280;63979;55.644;37.734;2023-07-31T06:07:48;99439.09;;;36.38;22.85
75409;BME280;63979;55.644;37.734;2023-07-31T06:12:49;99441.34;;;36.31;21.39
75409;BME280;63979;55.644;37.734;2023-07-31T06:17:50;99448.84;;;36.25;22.60
75409;BME280;63979;55.644;37.734;2023-07-31T06:22:52;99440.09;;;37.56;20.55
75409;BME280;63979;55.644;37.734;2023-07-31T06:27:53;99456.56;;;37.08;20.15
75409;BME280;63979;55.644;37.734;2023-07-31T06:32:54;99446.22;;;37.92;19.87
75409;BME280;63979;55.644;37.734;2023-07-31T06:37:55;99447.41;;;36.53;20.96
75409;BME280;63979;55.644;37.734;2023-07-31T06:42:56;99456.97;;;35.66;20.50
75409;BME280;63979;55.644;37.734;2023-07-31T06:47:57;99455.91;;;37.31;20.53
75409;BME280;63979;55.644;37.734;2023-07-31T06:53:01;99468.44;;;39.16;17.51
75409;BME280;63979;55.644;37.734;2023-07-31T06:58:03;99466.38;;;40.52;16.39
75409;BME280;63979;55.644;37.734;2023-07-31T07:03:04;99470.91;;;39.37;16.54
75409;BME280;63979;55.644;37.734;2023-07-31T07:08:05;99456.91;;;40.75;16.18
75409;BME280;63979;55.644;37.734;2023-07-31T07:13:06;99463.41;;;42.24;14.87
75409;BME280;63979;55.644;37.734;2023-07-31T07:18:07;99465.22;;;41.66;14.34
75409;BME280;63979;55.644;37.734;2023-07-31T07:23:08;99468.91;;;42.69;13.98
75409;BME280;63979;55.644;37.734;2023-07-31T07:28:09;99461.31;;;42.78;13.52
75409;BME280;63979;55.644;37.734;2023-07-31T07:33:10;99481.09;;;43.73;12.99
75409;BME280;63979;55.644;37.734;2023-07-31T07:38:14;99474.63;;;43.29;12.21
75409;BME280;63979;55.644;37.734;2023-07-31T07:43:16;99480.44;;;43.76;12.65
75409;BME280;63979;55.644;37.734;2023-07-31T07:48:17;99478.09;;;43.78;12.22
75409;BME280;63979;55.644;37.734;2023-07-31T07:53:18;99469.69;;;41.67;14.38
75409;BME280;63979;55.644;37.734;2023-07-31T07:58:19;99479.53;;;42.10;14.05
75409;BME280;63979;55.644;37.734;2023-07-31T08:03:20;99473.66;;;41.30;14.91
75409;BME280;63979;55.644;37.734;2023-07-31T08:08:21;99457.09;;;43.32;13.28
75409;BME280;63979;55.644;37.734;2023-07-31T08:13:22;99486.03;;;43.84;12.74
75409;BME280;63979;55.644;37.734;2023-07-31T08:18:23;99480.84;;;45.09;11.44
75409;BME280;63979;55.644;37.734;2023-07-31T08:23:24;99482.78;;;44.97;11.93
75409;BME280;63979;55.644;37.734;2023-07-31T08:28:26;99472.88;;;44.61;11.85
75409;BME280;63979;55.644;37.734;2023-07-31T08:33:26;99477.13;;;45.26;10.99
75409;BME280;63979;55.644;37.734;2023-07-31T08:38:27;99468.56;;;45.56;10.84
75409;BME280;63979;55.644;37.734;2023-07-31T08:43:30;99474.34;;;45.59;10.91
75409;BME280;63979;55.644;37.734;2023-07-31T08:48:34;99468.25;;;46.84;10.30
75409;BME280;63979;55.644;37.734;2023-07-31T08:53:36;99478.94;;;46.42;10.05
75409;BME280;63979;55.644;37.734;2023-07-31T08:58:38;99495.94;;;45.14;10.60
75409;BME280;63979;55.644;37.734;2023-07-31T09:03:40;99478.88;;;45.52;11.00
75409;BME280;63979;55.644;37.734;2023-07-31T09:08:42;99485.97;;;45.58;11.54
75409;BME280;63979;55.644;37.734;2023-07-31T09:13:43;99477.41;;;45.87;10.31
75409;BME280;63979;55.644;37.734;2023-07-31T09:18:56;99463.88;;;46.63;9.59
75409;BME280;63979;55.644;37.734;2023-07-31T09:23:57;99481.56;;;43.49;12.11
75409;BME280;63979;55.644;37.734;2023-07-31T09:29:00;99474.97;;;43.28;12.94
75409;BME280;63979;55.644;37.734;2023-07-31T09:34:01;99446.81;;;41.60;13.50
75409;BME280;63979;55.644;37.734;2023-07-31T09:39:03;99462.31;;;43.94;12.82
75409;BME280;63979;55.644;37.734;2023-07-31T09:44:04;99460.72;;;43.07;13.30
75409;BME280;63979;55.644;37.734;2023-07-31T09:49:13;99454.91;;;42.94;12.91
75409;BME280;63979;55.644;37.734;2023-07-31T09:54:15;99472.97;;;43.45;12.40
75409;BME280;63979;55.644;37.734;2023-07-31T09:59:18;99452.28;;;45.74;10.73
75409;BME280;63979;55.644;37.734;2023-07-31T10:04:21;99466.44;;;45.53;11.80
75409;BME280;63979;55.644;37.734;2023-07-31T10:09:29;99467.00;;;43.81;11.99
75409;BME280;63979;55.644;37.734;2023-07-31T10:14:33;99474.75;;;46.03;11.11
75409;BME280;63979;55.644;37.734;2023-07-31T10:19:35;99462.59;;;45.36;11.84
75409;BME280;63979;55.644;37.734;2023-07-31T10:24:36;99467.38;;;45.57;11.30
75409;BME280;63979;55.644;37.734;2023-07-31T10:29:39;99464.16;;;44.37;12.45
75409;BME280;63979;55.644;37.734;2023-07-31T10:34:41;99462.94;;;39.11;16.66
75409;BME280;63979;55.644;37.734;2023-07-31T10:39:43;99461.31;;;37.52;16.76
75409;BME280;63979;55.644;37.734;2023-07-31T10:44:46;99465.31;;;40.34;15.51
75409;BME280;63979;55.644;37.734;2023-07-31T10:49:48;99437.41;;;40.02;15.30
75409;BME280;63979;55.644;37.734;2023-07-31T10:54:49;99455.22;;;38.36;16.15
75409;BME280;63979;55.644;37.734;2023-07-31T10:59:51;99449.50;;;35.51;19.04
75409;BME280;63979;55.644;37.734;2023-07-31T11:05:12;99451.31;;;33.53;22.08
75409;BME280;63979;55.644;37.734;2023-07-31T11:10:16;99448.25;;;31.74;24.56
75409;BME280;63979;55.644;37.734;2023-07-31T11:15:17;99430.97;;;31.17;25.47
75409;BME280;63979;55.644;37.734;2023-07-31T11:20:19;99440.72;;;31.08;26.02
75409;BME280;63979;55.644;37.734;2023-07-31T11:25:20;99434.91;;;31.21;26.54
75409;BME280;63979;55.644;37.734;2023-07-31T11:30:23;99432.09;;;31.04;25.35
75409;BME280;63979;55.644;37.734;2023-07-31T11:35:24;99403.19;;;30.61;25.88
75409;BME280;63979;55.644;37.734;2023-07-31T11:40:25;99429.03;;;30.20;27.13
75409;BME280;63979;55.644;37.734;2023-07-31T11:45:33;99435.53;;;31.23;26.31
75409;BME280;63979;55.644;37.734;2023-07-31T11:50:36;99442.38;;;34.72;21.03
75409;BME280;63979;55.644;37.734;2023-07-31T11:55:37;99446.34;;;32.30;24.94
75409;BME280;63979;55.644;37.734;2023-07-31T12:00:38;99447.97;;;31.25;25.89
75409;BME280;63979;55.644;37.734;2023-07-31T12:05:39;99445.44;;;30.03;28.51
75409;BME280;63979;55.644;37.734;2023-07-31T12:10:39;99445.91;;;29.89;28.18
75409;BME280;63979;55.644;37.734;2023-07-31T12:15:44;99445.25;;;30.45;27.99
75409;BME280;63979;55.644;37.734;2023-07-31T12:20:47;99446.66;;;31.45;27.86
75409;BME280;63979;55.644;37.734;2023-07-31T12:31:04;99443.84;;;30.31;29.69
75409;BME280;63979;55.644;37.734;2023-07-31T12:36:16;99397.16;;;29.31;29.39
75409;BME280;63979;55.644;37.734;2023-07-31T12:41:18;99437.09;;;29.22;29.92
75409;BME280;63979;55.644;37.734;2023-07-31T12:46:19;99448.06;;;29.52;29.58
75409;BME280;63979;55.644;37.734;2023-07-31T12:51:20;99453.06;;;29.78;28.77
75409;BME280;63979;55.644;37.734;2023-07-31T12:56:21;99444.00;;;30.13;27.94
75409;BME280;63979;55.644;37.734;2023-07-31T13:01:22;99442.78;;;29.62;28.41
75409;BME280;63979;55.644;37.734;2023-07-31T13:06:23;99446.66;;;29.19;30.34
75409;BME280;63979;55.644;37.734;2023-07-31T13:11:24;99436.34;;;28.54;30.84
75409;BME280;63979;55.644;37.734;2023-07-31T13:16:25;99452.06;;;28.29;32.20
75409;BME280;63979;55.644;37.734;2023-07-31T13:21:26;99452.63;;;27.94;30.91
75409;BME280;63979;55.644;37.734;2023-07-31T13:26:27;99452.38;;;27.96;32.04
75409;BME280;63979;55.644;37.734;2023-07-31T13:31:28;99449.19;;;27.99;32.29
75409;BME280;63979;55.644;37.734;2023-07-31T13:36:30;99397.72;;;29.09;30.33
75409;BME280;63979;55.644;37.734;2023-07-31T13:41:30;99438.94;;;29.09;29.09
75409;BME280;63979;55.644;37.734;2023-07-31T13:46:31;99443.81;;;28.96;30.56
75409;BME280;63979;55.644;37.734;2023-07-31T13:51:33;99421.91;;;29.19;30.29
75409;BME280;63979;55.644;37.734;2023-07-31T13:56:34;99436.19;;;28.49;31.76
75409;BME280;63979;55.644;37.734;2023-07-31T14:01:35;99442.66;;;28.37;32.62
75409;BME280;63979;55.644;37.734;2023-07-31T14:06:37;99449.50;;;27.66;33.63
75409;BME280;63979;55.644;37.734;2023-07-31T14:11:38;99438.34;;;26.73;35.01
75409;BME280;63979;55.644;37.734;2023-07-31T14:16:39;99458.44;;;26.54;35.67
75409;BME280;63979;55.644;37.734;2023-07-31T14:21:40;99414.88;;;26.32;36.72
75409;BME280;63979;55.644;37.734;2023-07-31T14:26:42;99447.16;;;26.17;37.22
75409;BME280;63979;55.644;37.734;2023-07-31T14:31:43;99452.84;;;26.16;37.65
75409;BME280;63979;55.644;37.734;2023-07-31T14:36:44;99443.75;;;26.35;37.88
75409;BME280;63979;55.644;37.734;2023-07-31T14:41:46;99454.06;;;26.26;37.53
75409;BME280;63979;55.644;37.734;2023-07-31T14:46:48;99448.16;;;26.36;37.30
75409;BME280;63979;55.644;37.734;2023-07-31T14:51:49;99451.53;;;26.45;37.87
75409;BME280;63979;55.644;37.734;2023-07-31T14:56:50;99437.50;;;26.66;37.01
75409;BME280;63979;55.644;37.734;2023-07-31T15:01:51;99439.44;;;26.97;36.65
75409;BME280;63979;55.644;37.734;2023-07-31T15:06:53;99434.88;;;26.84;36.40
75409;BME280;63979;55.644;37.734;2023-07-31T15:11:55;99403.50;;;26.49;36.93
75409;BME280;63979;55.644;37.734;2023-07-31T15:16:56;99437.22;;;27.19;37.14
75409;BME280;63979;55.644;37.734;2023-07-31T15:21:57;99436.66;;;27.35;35.48
75409;BME280;63979;55.644;37.734;2023-07-31T15:26:58;99447.00;;;27.08;35.97
75409;BME280;63979;55.644;37.734;2023-07-31T15:32:03;99453.78;;;26.54;37.22
75409;BME280;63979;55.644;37.734;2023-07-31T15:37:05;99447.16;;;26.75;36.59
75409;BME280;63979;55.644;37.734;2023-07-31T15:42:06;99452.59;;;26.82;37.74
75409;BME280;63979;55.644;37.734;2023-07-31T15:47:09;99442.28;;;26.39;37.06
75409;BME280;63979;55.644;37.734;2023-07-31T15:52:10;99436.50;;;25.83;37.93
75409;BME280;63979;55.644;37.734;2023-07-31T15:57:12;99425.19;;;25.33;37.85
75409;BME280;63979;55.644;37.734;2023-07-31T16:02:13;99436.94;;;25.20;39.04
75409;BME280;63979;55.644;37.734;2023-07-31T16:07:14;99441.75;;;24.98;40.13
75409;BME280;63979;55.644;37.734;2023-07-31T16:12:15;99432.41;;;24.79;40.71
75409;BME280;63979;55.644;37.734;2023-07-31T16:17:16;99455.75;;;24.82;41.12
75409;BME280;63979;55.644;37.734;2023-07-31T16:22:17;99453.63;;;24.71;41.22
75409;BME280;63979;55.644;37.734;2023-07-31T16:27:18;99450.69;;;24.85;41.65
75409;BME280;63979;55.644;37.734;2023-07-31T16:32:20;99444.41;;;24.85;41.34
75409;BME280;63979;55.644;37.734;2023-07-31T16:37:21;99414.94;;;24.61;42.62
75409;BME280;63979;55.644;37.734;2023-07-31T16:42:22;99455.13;;;24.93;43.28
75409;BME280;63979;55.644;37.734;2023-07-31T16:47:23;99451.56;;;24.93;43.29
75409;BME280;63979;55.644;37.734;2023-07-31T16:52:24;99464.78;;;24.89;42.41
75409;BME280;63979;55.644;37.734;2023-07-31T16:57:25;99463.31;;;24.93;42.85
75409;BME280;63979;55.644;37.734;2023-07-31T17:02:26;99471.50;;;24.93;44.00
75409;BME280;63979;55.644;37.734;2023-07-31T17:07:27;99472.97;;;24.82;45.24
75409;BME280;63979;55.644;37.734;2023-07-31T17:12:29;99484.25;;;24.66;47.68
75409;BME280;63979;55.644;37.734;2023-07-31T17:17:30;99484.16;;;24.46;48.93
75409;BME280;63979;55.644;37.734;2023-07-31T17:22:31;99490.94;;;24.22;50.97
75409;BME280;63979;55.644;37.734;2023-07-31T17:27:32;99494.72;;;23.93;51.62
75409;BME280;63979;55.644;37.734;2023-07-31T17:32:33;99494.16;;;23.70;53.24
75409;BME280;63979;55.644;37.734;2023-07-31T17:37:34;99526.25;;;23.53;55.62
75409;BME280;63979;55.644;37.734;2023-07-31T17:42:35;99488.59;;;23.14;56.58
75409;BME280;63979;55.644;37.734;2023-07-31T17:47:36;99513.88;;;23.08;57.94
75409;BME280;63979;55.644;37.734;2023-07-31T17:52:37;99533.19;;;22.92;59.12
75409;BME280;63979;55.644;37.734;2023-07-31T17:57:38;99539.56;;;22.69;58.92
75409;BME280;63979;55.644;37.734;2023-07-31T18:02:39;99511.00;;;22.29;58.89
75409;BME280;63979;55.644;37.734;2023-07-31T18:07:40;99545.03;;;22.40;60.21
75409;BME280;63979;55.644;37.734;2023-07-31T18:12:41;99555.34;;;22.30;59.57
75409;BME280;63979;55.644;37.734;2023-07-31T18:17:41;99546.91;;;22.25;60.00
75409;BME280;63979;55.644;37.734;2023-07-31T18:22:42;99552.34;;;22.25;60.06
75409;BME280;63979;55.644;37.734;2023-07-31T18:27:43;99548.13;;;22.22;59.96
75409;BME280;63979;55.644;37.734;2023-07-31T18:32:44;99547.81;;;22.17;59.02
75409;BME280;63979;55.644;37.734;2023-07-31T18:37:46;99549.69;;;22.17;59.51
75409;BME280;63979;55.644;37.734;2023-07-31T18:42:47;99550.50;;;22.02;60.29
75409;BME280;63979;55.644;37.734;2023-07-31T18:47:47;99554.56;;;22.06;62.96
75409;BME280;63979;55.644;37.734;2023-07-31T18:52:48;99562.41;;;22.01;65.23
75409;BME280;63979;55.644;37.734;2023-07-31T18:57:49;99549.66;;;21.87;65.70
75409;BME280;63979;55.644;37.734;2023-07-31T19:02:50;99554.59;;;21.84;66.21
75409;BME280;63979;55.644;37.734;2023-07-31T19:07:51;99544.94;;;21.81;66.73
75409;BME280;63979;55.644;37.734;2023-07-31T19:12:52;99540.03;;;21.62;66.81
75409;BME280;63979;55.644;37.734;2023-07-31T19:17:53;99556.50;;;21.60;66.88
75409;BME280;63979;55.644;37.734;2023-07-31T19:22:55;99549.69;;;21.41;67.69
75409;BME280;63979;55.644;37.734;2023-07-31T19:28:00;99567.06;;;21.32;68.14
75409;BME280;63979;55.644;37.734;2023-07-31T19:33:01;99560.72;;;21.09;69.00
75409;BME280;63979;55.644;37.734;2023-07-31T19:38:02;99564.16;;;21.03;67.25
75409;BME280;63979;55.644;37.734;2023-07-31T19:43:03;99563.56;;;20.93;66.91
75409;BME280;63979;55.644;37.734;2023-07-31T19:48:04;99571.47;;;21.02;62.54
75409;BME280;63979;55.644;37.734;2023-07-31T19:53:05;99580.41;;;21.11;62.21
75409;BME280;63979;55.644;37.734;2023-07-31T19:58:06;99584.44;;;21.15;62.85
75409;BME280;63979;55.644;37.734;2023-07-31T20:03:07;99589.72;;;21.16;62.59
75409;BME280;63979;55.644;37.734;2023-07-31T20:08:08;99593.59;;;21.22;62.30
75409;BME280;63979;55.644;37.734;2023-07-31T20:13:09;99572.56;;;21.16;61.58
75409;BME280;63979;55.644;37.734;2023-07-31T20:18:10;99589.53;;;21.18;61.91
75409;BME280;63979;55.644;37.734;2023-07-31T20:23:11;99589.19;;;21.13;64.11
75409;BME280;63979;55.644;37.734;2023-07-31T20:28:12;99586.53;;;21.05;64.80
75409;BME280;63979;55.644;37.734;2023-07-31T20:33:13;99593.03;;;20.96;66.44
75409;BME280;63979;55.644;37.734;2023-07-31T20:38:14;99590.72;;;20.84;67.38
75409;BME280;63979;55.644;37.734;2023-07-31T20:43:16;99595.16;;;20.77;68.25
75409;BME280;63979;55.644;37.734;2023-07-31T20:48:19;99599.81;;;20.61;69.55
75409;BME280;63979;55.644;37.734;2023-07-31T20:53:20;99600.03;;;20.51;71.15
75409;BME280;63979;55.644;37.734;2023-07-31T20:58:21;99583.75;;;20.43;73.20
75409;BME280;63979;55.644;37.734;2023-07-31T21:03:22;99593.56;;;20.44;70.85
75409;BME280;63979;55.644;37.734;2023-07-31T21:08:23;99593.09;;;20.40;70.69
75409;BME280;63979;55.644;37.734;2023-07-31T21:13:24;99586.31;;;20.28;70.94
75409;BME280;63979;55.644;37.734;2023-07-31T21:18:26;99585.50;;;20.19;70.97
75409;BME280;63979;55.644;37.734;2023-07-31T21:23:27;99584.66;;;20.19;71.57
75409;BME280;63979;55.644;37.734;2023-07-31T21:28:28;99533.53;;;19.75;72.43
75409;BME280;63979;55.644;37.734;2023-07-31T21:33:30;99584.16;;;19.99;71.15
75409;BME280;63979;55.644;37.734;2023-07-31T21:38:32;99581.28;;;19.92;71.99
75409;BME280;63979;55.644;37.734;2023-07-31T21:43:32;99580.44;;;19.92;71.91
75409;BME280;63979;55.644;37.734;2023-07-31T21:48:34;99586.03;;;19.90;72.75
75409;BME280;63979;55.644;37.734;2023-07-31T21:53:35;99566.72;;;19.77;70.59
75409;BME280;63979;55.644;37.734;2023-07-31T21:58:36;99569.59;;;19.76;72.83
75409;BME280;63979;55.644;37.734;2023-07-31T22:03:37;99589.25;;;19.86;73.17
75409;BME280;63979;55.644;37.734;2023-07-31T22:08:37;99565.88;;;19.69;73.47
75409;BME280;63979;55.644;37.734;2023-07-31T22:13:39;99582.81;;;19.71;73.32
75409;BME280;63979;55.644;37.734;2023-07-31T22:18:40;99577.41;;;19.71;73.03
75409;BME280;63979;55.644;37.734;2023-07-31T22:23:40;99574.34;;;19.74;72.77
75409;BME280;63979;55.644;37.734;2023-07-31T22:28:41;99575.19;;;19.66;73.30
75409;BME280;63979;55.644;37.734;2023-07-31T22:33:43;99582.31;;;19.59;71.91
75409;BME280;63979;55.644;37.734;2023-07-31T22:38:44;99588.06;;;19.56;72.28
75409;BME280;63979;55.644;37.734;2023-07-31T22:43:45;99576.19;;;19.49;70.80
75409;BME280;63979;55.644;37.734;2023-07-31T22:48:46;99584.81;;;19.52;70.69
75409;BME280;63979;55.644;37.734;2023-07-31T22:53:48;99580.25;;;19.45;71.18
75409;BME280;63979;55.644;37.734;2023-07-31T22:58:49;99581.41;;;19.42;71.36
75409;BME280;63979;55.644;37.734;2023-07-31T23:03:50;99582.44;;;19.41;72.11
75409;BME280;63979;55.644;37.734;2023-07-31T23:08:52;99582.75;;;19.30;72.26
75409;BME280;63979;55.644;37.734;2023-07-31T23:13:53;99595.63;;;19.28;72.87
75409;BME280;63979;55.644;37.734;2023-07-31T23:18:54;99588.16;;;19.22;72.60
75409;BME280;63979;55.644;37.734;2023-07-31T23:23:55;99590.69;;;19.15;72.90
75409;BME280;63979;55.644;37.734;2023-07-31T23:28:57;99594.88;;;19.01;74.09
75409;BME280;63979;55.644;37.734;2023-07-31T23:33:58;99598.22;;;18.95;74.37
75409;BME280;63979;55.644;37.734;2023-07-31T23:38:59;99576.56;;;18.87;75.59
75409;BME280;63979;55.644;37.734;2023-07-31T23:44:00;99593.47;;;18.89;76.65
75409;BME280;63979;55.644;37.734;2023-07-31T23:49:02;99601.94;;;18.86;76.25
75409;BME280;63979;55.644;37.734;2023-07-31T23:54:03;99602.91;;;18.77;75.28
75409;BME280;63979;55.644;37.734;2023-07-31T23:59:04;99563.91;;;18.54;75.54
